Terminal Aerodrome Forecast
Issued by NWS Wilmington, OH

Current Version | Previous Version | Graphics & Text | Print | Product List | Glossary On
Versions: 1 2 3 4 5 6 7 8 9 10 11 12 13 14 15 16 17 18 19 20 21 22 23 24 25 26 27 28 29
000
FTUS41 KILN 021300 AAB
TAFCVG
TAF AMD
KCVG 021316Z 0213/0318 14006KT P6SM -SHRA SCT025 OVC040
      TEMPO 0213/0215 5SM -SHRA BR OVC025
     FM021500 22010KT P6SM VCSH BKN040
     FM022000 26010KT P6SM SCT040
     FM030000 22004KT P6SM SCT250
     FM030800 VRB03KT 3SM BR SCT025
     FM031400 26005KT P6SM SCT040=

USA.gov is the U.S. government's official web portal to all federal, state and local government web resources and services.